sensor_id;sensor_type;location;lat;lon;timestamp;temperature;humidity
22436;DHT22;11385;50.822;4.324;2023-08-31T00:01:30;13.30;99.90
22436;DHT22;11385;50.822;4.324;2023-08-31T00:03:57;13.40;99.90
22436;DHT22;11385;50.822;4.324;2023-08-31T00:06:25;13.40;99.90
22436;DHT22;11385;50.822;4.324;2023-08-31T00:08:52;13.40;99.90
22436;DHT22;11385;50.822;4.324;2023-08-31T00:11:18;13.40;99.90
22436;DHT22;11385;50.822;4.324;2023-08-31T00:13:46;13.40;99.90
22436;DHT22;11385;50.822;4.324;2023-08-31T00:16:12;13.40;99.90
22436;DHT22;11385;50.822;4.324;2023-08-31T00:18:40;13.40;99.90
22436;DHT22;11385;50.822;4.324;2023-08-31T00:21:07;13.40;99.90
22436;DHT22;11385;50.822;4.324;2023-08-31T00:23:34;13.40;99.90
22436;DHT22;11385;50.822;4.324;2023-08-31T00:26:03;13.40;99.90
22436;DHT22;11385;50.822;4.324;2023-08-31T00:28:29;13.40;99.90
22436;DHT22;11385;50.822;4.324;2023-08-31T00:30:59;13.50;99.90
22436;DHT22;11385;50.822;4.324;2023-08-31T00:33:26;13.50;99.90
22436;DHT22;11385;50.822;4.324;2023-08-31T00:35:52;13.50;99.90
22436;DHT22;11385;50.822;4.324;2023-08-31T00:38:21;13.50;99.90
22436;DHT22;11385;50.822;4.324;2023-08-31T00:40:48;13.60;99.90
22436;DHT22;11385;50.822;4.324;2023-08-31T00:43:14;13.80;99.90
22436;DHT22;11385;50.822;4.324;2023-08-31T00:45:42;13.80;99.90
22436;DHT22;11385;50.822;4.324;2023-08-31T00:48:09;13.80;99.90
22436;DHT22;11385;50.822;4.324;2023-08-31T00:50:36;13.70;99.90
22436;DHT22;11385;50.822;4.324;2023-08-31T00:53:03;13.70;99.90
22436;DHT22;11385;50.822;4.324;2023-08-31T00:55:30;13.60;99.90
22436;DHT22;11385;50.822;4.324;2023-08-31T00:57:59;13.60;99.90
22436;DHT22;11385;50.822;4.324;2023-08-31T01:00:45;13.80;99.90
22436;DHT22;11385;50.822;4.324;2023-08-31T01:03:23;13.70;99.90
22436;DHT22;11385;50.822;4.324;2023-08-31T01:05:55;13.60;99.90
22436;DHT22;11385;50.822;4.324;2023-08-31T01:08:27;13.60;99.90
22436;DHT22;11385;50.822;4.324;2023-08-31T01:11:08;13.50;99.90
22436;DHT22;11385;50.822;4.324;2023-08-31T01:13:34;13.50;99.90
22436;DHT22;11385;50.822;4.324;2023-08-31T01:16:06;13.50;99.90
22436;DHT22;11385;50.822;4.324;2023-08-31T01:18:35;13.50;99.90
22436;DHT22;11385;50.822;4.324;2023-08-31T01:21:11;13.50;99.90
22436;DHT22;11385;50.822;4.324;2023-08-31T01:23:55;13.50;99.90
22436;DHT22;11385;50.822;4.324;2023-08-31T01:26:24;13.60;99.90
22436;DHT22;11385;50.822;4.324;2023-08-31T01:28:52;13.50;99.90
22436;DHT22;11385;50.822;4.324;2023-08-31T01:31:19;13.50;99.90
22436;DHT22;11385;50.822;4.324;2023-08-31T01:33:46;13.50;99.90
22436;DHT22;11385;50.822;4.324;2023-08-31T01:36:20;13.60;99.90
22436;DHT22;11385;50.822;4.324;2023-08-31T01:38:50;13.60;99.90
22436;DHT22;11385;50.822;4.324;2023-08-31T01:41:19;13.50;99.90
22436;DHT22;11385;50.822;4.324;2023-08-31T01:43:49;13.50;99.90
22436;DHT22;11385;50.822;4.324;2023-08-31T01:46:17;13.50;99.90
22436;DHT22;11385;50.822;4.324;2023-08-31T01:48:44;13.50;99.90
22436;DHT22;11385;50.822;4.324;2023-08-31T01:51:11;13.50;99.90
22436;DHT22;11385;50.822;4.324;2023-08-31T01:53:38;13.50;99.90
22436;DHT22;11385;50.822;4.324;2023-08-31T01:56:07;13.40;99.90
22436;DHT22;11385;50.822;4.324;2023-08-31T01:58:33;13.30;99.90
22436;DHT22;11385;50.822;4.324;2023-08-31T02:01:00;13.40;99.90
22436;DHT22;11385;50.822;4.324;2023-08-31T02:03:27;13.40;99.90
22436;DHT22;11385;50.822;4.324;2023-08-31T02:05:53;13.40;99.90
22436;DHT22;11385;50.822;4.324;2023-08-31T02:08:20;13.40;99.90
22436;DHT22;11385;50.822;4.324;2023-08-31T02:10:47;13.30;99.90
22436;DHT22;11385;50.822;4.324;2023-08-31T02:13:14;13.30;99.90
22436;DHT22;11385;50.822;4.324;2023-08-31T02:15:42;13.30;99.90
22436;DHT22;11385;50.822;4.324;2023-08-31T02:18:09;13.30;99.90
22436;DHT22;11385;50.822;4.324;2023-08-31T02:20:36;13.30;99.90
22436;DHT22;11385;50.822;4.324;2023-08-31T02:23:03;13.30;99.90
22436;DHT22;11385;50.822;4.324;2023-08-31T02:25:29;13.40;99.90
22436;DHT22;11385;50.822;4.324;2023-08-31T02:27:56;13.30;99.90
22436;DHT22;11385;50.822;4.324;2023-08-31T02:30:23;13.30;99.90
22436;DHT22;11385;50.822;4.324;2023-08-31T02:32:49;13.30;99.90
22436;DHT22;11385;50.822;4.324;2023-08-31T02:35:16;13.40;99.90
22436;DHT22;11385;50.822;4.324;2023-08-31T02:37:43;13.30;99.90
22436;DHT22;11385;50.822;4.324;2023-08-31T02:40:10;13.40;99.90
22436;DHT22;11385;50.822;4.324;2023-08-31T02:42:36;13.40;99.90
22436;DHT22;11385;50.822;4.324;2023-08-31T02:45:03;13.40;99.90
22436;DHT22;11385;50.822;4.324;2023-08-31T02:47:30;13.40;99.90
22436;DHT22;11385;50.822;4.324;2023-08-31T02:49:57;13.40;99.90
22436;DHT22;11385;50.822;4.324;2023-08-31T02:52:24;13.40;99.90
22436;DHT22;11385;50.822;4.324;2023-08-31T02:54:50;13.30;99.90
22436;DHT22;11385;50.822;4.324;2023-08-31T02:57:17;13.40;99.90
22436;DHT22;11385;50.822;4.324;2023-08-31T02:59:50;13.40;99.90
22436;DHT22;11385;50.822;4.324;2023-08-31T03:02:17;13.40;99.90
22436;DHT22;11385;50.822;4.324;2023-08-31T03:04:43;13.40;99.90
22436;DHT22;11385;50.822;4.324;2023-08-31T03:07:11;13.40;99.90
22436;DHT22;11385;50.822;4.324;2023-08-31T03:09:39;13.30;99.90
22436;DHT22;11385;50.822;4.324;2023-08-31T03:12:06;13.40;99.90
22436;DHT22;11385;50.822;4.324;2023-08-31T03:14:33;13.50;99.90
22436;DHT22;11385;50.822;4.324;2023-08-31T03:17:00;13.50;99.90
22436;DHT22;11385;50.822;4.324;2023-08-31T03:19:26;13.50;99.90
22436;DHT22;11385;50.822;4.324;2023-08-31T03:21:53;13.50;99.90
22436;DHT22;11385;50.822;4.324;2023-08-31T03:24:20;13.50;99.90
22436;DHT22;11385;50.822;4.324;2023-08-31T03:26:51;13.60;99.90
22436;DHT22;11385;50.822;4.324;2023-08-31T03:29:17;13.50;99.90
22436;DHT22;11385;50.822;4.324;2023-08-31T03:31:44;13.50;99.90
22436;DHT22;11385;50.822;4.324;2023-08-31T03:34:11;13.40;99.90
22436;DHT22;11385;50.822;4.324;2023-08-31T03:36:37;13.40;99.90
22436;DHT22;11385;50.822;4.324;2023-08-31T03:39:04;13.40;99.90
22436;DHT22;11385;50.822;4.324;2023-08-31T03:41:30;13.40;99.90
22436;DHT22;11385;50.822;4.324;2023-08-31T03:43:57;13.40;99.90
22436;DHT22;11385;50.822;4.324;2023-08-31T03:46:24;13.40;99.90
22436;DHT22;11385;50.822;4.324;2023-08-31T03:48:52;13.40;99.90
22436;DHT22;11385;50.822;4.324;2023-08-31T03:51:19;13.30;99.90
22436;DHT22;11385;50.822;4.324;2023-08-31T03:53:46;13.30;99.90
22436;DHT22;11385;50.822;4.324;2023-08-31T03:56:12;13.30;99.90
22436;DHT22;11385;50.822;4.324;2023-08-31T03:58:39;13.30;99.90
22436;DHT22;11385;50.822;4.324;2023-08-31T04:01:06;13.30;99.90
22436;DHT22;11385;50.822;4.324;2023-08-31T04:03:32;13.30;99.90
22436;DHT22;11385;50.822;4.324;2023-08-31T04:05:59;13.20;99.90
22436;DHT22;11385;50.822;4.324;2023-08-31T04:08:26;13.20;99.90
22436;DHT22;11385;50.822;4.324;2023-08-31T04:10:53;13.20;99.90
22436;DHT22;11385;50.822;4.324;2023-08-31T04:13:19;13.20;99.90
22436;DHT22;11385;50.822;4.324;2023-08-31T04:15:46;13.20;99.90
22436;DHT22;11385;50.822;4.324;2023-08-31T04:18:13;13.20;99.90
22436;DHT22;11385;50.822;4.324;2023-08-31T04:20:48;13.30;99.90
22436;DHT22;11385;50.822;4.324;2023-08-31T04:23:15;13.20;99.90
22436;DHT22;11385;50.822;4.324;2023-08-31T04:25:42;13.10;99.90
22436;DHT22;11385;50.822;4.324;2023-08-31T04:28:09;13.10;99.90
22436;DHT22;11385;50.822;4.324;2023-08-31T04:30:35;13.10;99.90
22436;DHT22;11385;50.822;4.324;2023-08-31T04:33:02;13.10;99.90
22436;DHT22;11385;50.822;4.324;2023-08-31T04:35:30;13.10;99.90
22436;DHT22;11385;50.822;4.324;2023-08-31T04:37:58;13.10;99.90
22436;DHT22;11385;50.822;4.324;2023-08-31T04:40:24;13.10;99.90
22436;DHT22;11385;50.822;4.324;2023-08-31T04:42:52;13.00;99.90
22436;DHT22;11385;50.822;4.324;2023-08-31T04:45:19;12.90;99.90
22436;DHT22;11385;50.822;4.324;2023-08-31T04:47:46;13.00;99.90
22436;DHT22;11385;50.822;4.324;2023-08-31T04:50:12;12.90;99.90
22436;DHT22;11385;50.822;4.324;2023-08-31T04:52:39;12.90;99.90
22436;DHT22;11385;50.822;4.324;2023-08-31T04:55:06;12.90;99.90
22436;DHT22;11385;50.822;4.324;2023-08-31T04:57:34;13.00;99.90
22436;DHT22;11385;50.822;4.324;2023-08-31T05:00:01;12.90;99.90
22436;DHT22;11385;50.822;4.324;2023-08-31T05:02:29;12.90;99.90
22436;DHT22;11385;50.822;4.324;2023-08-31T05:04:55;13.00;99.90
22436;DHT22;11385;50.822;4.324;2023-08-31T05:07:22;13.00;99.90
22436;DHT22;11385;50.822;4.324;2023-08-31T05:09:49;13.00;99.90
22436;DHT22;11385;50.822;4.324;2023-08-31T05:12:16;13.00;99.90
22436;DHT22;11385;50.822;4.324;2023-08-31T05:14:43;13.00;99.90
22436;DHT22;11385;50.822;4.324;2023-08-31T05:17:10;12.90;99.90
22436;DHT22;11385;50.822;4.324;2023-08-31T05:19:37;12.90;99.90
22436;DHT22;11385;50.822;4.324;2023-08-31T05:22:03;12.90;99.90
22436;DHT22;11385;50.822;4.324;2023-08-31T05:24:30;12.90;99.90
22436;DHT22;11385;50.822;4.324;2023-08-31T05:26:57;13.00;99.90
22436;DHT22;11385;50.822;4.324;2023-08-31T05:29:24;13.00;99.90
22436;DHT22;11385;50.822;4.324;2023-08-31T05:31:51;13.10;99.90
22436;DHT22;11385;50.822;4.324;2023-08-31T05:34:21;13.10;99.90
22436;DHT22;11385;50.822;4.324;2023-08-31T05:36:50;13.00;99.90
22436;DHT22;11385;50.822;4.324;2023-08-31T05:39:17;13.00;99.90
22436;DHT22;11385;50.822;4.324;2023-08-31T05:41:44;13.10;99.90
22436;DHT22;11385;50.822;4.324;2023-08-31T05:44:11;13.10;99.90
22436;DHT22;11385;50.822;4.324;2023-08-31T05:46:37;13.10;99.90
22436;DHT22;11385;50.822;4.324;2023-08-31T05:49:05;13.20;99.90
22436;DHT22;11385;50.822;4.324;2023-08-31T05:51:32;13.30;99.90
22436;DHT22;11385;50.822;4.324;2023-08-31T05:53:59;13.30;99.90
22436;DHT22;11385;50.822;4.324;2023-08-31T05:56:26;13.20;99.90
22436;DHT22;11385;50.822;4.324;2023-08-31T05:58:52;13.30;99.90
22436;DHT22;11385;50.822;4.324;2023-08-31T06:01:20;13.30;99.90
22436;DHT22;11385;50.822;4.324;2023-08-31T06:03:48;13.30;99.90
22436;DHT22;11385;50.822;4.324;2023-08-31T06:06:15;13.40;99.90
22436;DHT22;11385;50.822;4.324;2023-08-31T06:08:41;13.60;99.90
22436;DHT22;11385;50.822;4.324;2023-08-31T06:11:09;13.60;99.90
22436;DHT22;11385;50.822;4.324;2023-08-31T06:13:37;13.60;99.90
22436;DHT22;11385;50.822;4.324;2023-08-31T06:16:03;13.60;99.90
22436;DHT22;11385;50.822;4.324;2023-08-31T06:18:30;13.60;99.90
22436;DHT22;11385;50.822;4.324;2023-08-31T06:20:57;13.60;99.90
22436;DHT22;11385;50.822;4.324;2023-08-31T06:23:23;13.60;99.90
22436;DHT22;11385;50.822;4.324;2023-08-31T06:25:50;13.70;99.90
22436;DHT22;11385;50.822;4.324;2023-08-31T06:28:17;13.70;99.90
22436;DHT22;11385;50.822;4.324;2023-08-31T06:30:43;13.80;99.90
22436;DHT22;11385;50.822;4.324;2023-08-31T06:33:14;13.80;99.90
22436;DHT22;11385;50.822;4.324;2023-08-31T06:35:40;13.80;99.90
22436;DHT22;11385;50.822;4.324;2023-08-31T06:38:07;13.90;99.90
22436;DHT22;11385;50.822;4.324;2023-08-31T06:40:34;14.00;99.90
22436;DHT22;11385;50.822;4.324;2023-08-31T06:43:00;13.90;99.90
22436;DHT22;11385;50.822;4.324;2023-08-31T06:45:27;14.00;99.90
22436;DHT22;11385;50.822;4.324;2023-08-31T06:47:54;13.90;99.90
22436;DHT22;11385;50.822;4.324;2023-08-31T06:50:21;13.90;99.90
22436;DHT22;11385;50.822;4.324;2023-08-31T06:52:47;13.90;99.90
22436;DHT22;11385;50.822;4.324;2023-08-31T06:55:14;14.10;99.90
22436;DHT22;11385;50.822;4.324;2023-08-31T06:57:40;14.10;99.90
22436;DHT22;11385;50.822;4.324;2023-08-31T07:00:08;14.10;99.90
22436;DHT22;11385;50.822;4.324;2023-08-31T07:02:39;14.10;99.90
22436;DHT22;11385;50.822;4.324;2023-08-31T07:05:06;14.30;99.90
22436;DHT22;11385;50.822;4.324;2023-08-31T07:07:32;14.30;99.90
22436;DHT22;11385;50.822;4.324;2023-08-31T07:09:59;14.20;99.90
22436;DHT22;11385;50.822;4.324;2023-08-31T07:12:25;14.10;99.90
22436;DHT22;11385;50.822;4.324;2023-08-31T07:14:52;14.30;99.90
22436;DHT22;11385;50.822;4.324;2023-08-31T07:17:19;14.30;99.90
22436;DHT22;11385;50.822;4.324;2023-08-31T07:19:45;14.50;99.90
22436;DHT22;11385;50.822;4.324;2023-08-31T07:22:12;14.40;99.90
22436;DHT22;11385;50.822;4.324;2023-08-31T07:24:38;14.30;99.90
22436;DHT22;11385;50.822;4.324;2023-08-31T07:27:05;14.40;99.90
22436;DHT22;11385;50.822;4.324;2023-08-31T07:29:32;14.50;99.90
22436;DHT22;11385;50.822;4.324;2023-08-31T07:31:59;14.50;99.90
22436;DHT22;11385;50.822;4.324;2023-08-31T07:34:25;14.60;99.90
22436;DHT22;11385;50.822;4.324;2023-08-31T07:36:52;14.70;99.90
22436;DHT22;11385;50.822;4.324;2023-08-31T07:39:19;14.70;99.90
22436;DHT22;11385;50.822;4.324;2023-08-31T07:41:46;14.80;99.90
22436;DHT22;11385;50.822;4.324;2023-08-31T07:44:12;14.90;99.90
22436;DHT22;11385;50.822;4.324;2023-08-31T07:46:39;15.00;99.90
22436;DHT22;11385;50.822;4.324;2023-08-31T07:49:05;15.00;99.90
22436;DHT22;11385;50.822;4.324;2023-08-31T07:51:32;14.90;99.90
22436;DHT22;11385;50.822;4.324;2023-08-31T07:53:59;14.90;99.90
22436;DHT22;11385;50.822;4.324;2023-08-31T07:56:28;15.00;99.90
22436;DHT22;11385;50.822;4.324;2023-08-31T07:58:55;15.20;99.90
22436;DHT22;11385;50.822;4.324;2023-08-31T08:01:21;15.40;99.90
22436;DHT22;11385;50.822;4.324;2023-08-31T08:03:48;15.30;99.90
22436;DHT22;11385;50.822;4.324;2023-08-31T08:06:15;15.50;99.90
22436;DHT22;11385;50.822;4.324;2023-08-31T08:08:41;15.40;99.90
22436;DHT22;11385;50.822;4.324;2023-08-31T08:11:08;15.40;99.90
22436;DHT22;11385;50.822;4.324;2023-08-31T08:13:35;15.40;99.90
22436;DHT22;11385;50.822;4.324;2023-08-31T08:16:01;15.50;99.90
22436;DHT22;11385;50.822;4.324;2023-08-31T08:18:29;15.70;99.90
22436;DHT22;11385;50.822;4.324;2023-08-31T08:20:56;15.70;99.90
22436;DHT22;11385;50.822;4.324;2023-08-31T08:23:22;15.80;99.90
22436;DHT22;11385;50.822;4.324;2023-08-31T08:25:49;15.60;99.90
22436;DHT22;11385;50.822;4.324;2023-08-31T08:28:16;15.70;99.90
22436;DHT22;11385;50.822;4.324;2023-08-31T08:30:42;15.80;99.90
22436;DHT22;11385;50.822;4.324;2023-08-31T08:33:09;15.80;99.90
22436;DHT22;11385;50.822;4.324;2023-08-31T08:35:37;15.80;99.90
22436;DHT22;11385;50.822;4.324;2023-08-31T08:38:05;16.00;99.90
22436;DHT22;11385;50.822;4.324;2023-08-31T08:40:31;16.00;99.90
22436;DHT22;11385;50.822;4.324;2023-08-31T08:43:01;16.20;99.90
22436;DHT22;11385;50.822;4.324;2023-08-31T08:45:30;16.20;99.90
22436;DHT22;11385;50.822;4.324;2023-08-31T08:47:58;16.20;99.90
22436;DHT22;11385;50.822;4.324;2023-08-31T08:50:25;16.10;99.90
22436;DHT22;11385;50.822;4.324;2023-08-31T08:52:53;16.10;99.90
22436;DHT22;11385;50.822;4.324;2023-08-31T08:55:20;16.20;99.90
22436;DHT22;11385;50.822;4.324;2023-08-31T08:57:48;16.30;99.90
22436;DHT22;11385;50.822;4.324;2023-08-31T09:00:14;16.40;99.90
22436;DHT22;11385;50.822;4.324;2023-08-31T09:02:41;16.40;99.90
22436;DHT22;11385;50.822;4.324;2023-08-31T09:05:08;16.60;99.90
22436;DHT22;11385;50.822;4.324;2023-08-31T09:07:35;16.70;99.90
22436;DHT22;11385;50.822;4.324;2023-08-31T09:10:04;16.90;99.90
22436;DHT22;11385;50.822;4.324;2023-08-31T09:12:30;16.90;99.90
22436;DHT22;11385;50.822;4.324;2023-08-31T09:14:58;16.90;99.90
22436;DHT22;11385;50.822;4.324;2023-08-31T09:17:25;17.10;99.90
22436;DHT22;11385;50.822;4.324;2023-08-31T09:19:59;17.00;99.90
22436;DHT22;11385;50.822;4.324;2023-08-31T09:22:28;17.10;99.90
22436;DHT22;11385;50.822;4.324;2023-08-31T09:24:55;17.00;99.90
22436;DHT22;11385;50.822;4.324;2023-08-31T09:27:21;17.20;99.90
22436;DHT22;11385;50.822;4.324;2023-08-31T09:29:52;17.40;99.90
22436;DHT22;11385;50.822;4.324;2023-08-31T09:32:19;17.40;99.90
22436;DHT22;11385;50.822;4.324;2023-08-31T09:34:46;17.60;99.90
22436;DHT22;11385;50.822;4.324;2023-08-31T09:37:15;17.60;99.90
22436;DHT22;11385;50.822;4.324;2023-08-31T09:39:42;17.70;99.90
22436;DHT22;11385;50.822;4.324;2023-08-31T09:42:09;17.80;99.90
22436;DHT22;11385;50.822;4.324;2023-08-31T09:44:40;18.00;99.90
22436;DHT22;11385;50.822;4.324;2023-08-31T09:47:08;18.00;99.90
22436;DHT22;11385;50.822;4.324;2023-08-31T09:49:35;17.80;99.90
22436;DHT22;11385;50.822;4.324;2023-08-31T09:52:03;17.70;99.90
22436;DHT22;11385;50.822;4.324;2023-08-31T09:54:33;17.80;99.90
22436;DHT22;11385;50.822;4.324;2023-08-31T09:57:02;17.90;99.90
22436;DHT22;11385;50.822;4.324;2023-08-31T09:59:29;18.10;99.90
22436;DHT22;11385;50.822;4.324;2023-08-31T10:01:56;18.10;99.90
22436;DHT22;11385;50.822;4.324;2023-08-31T10:04:23;18.10;99.90
22436;DHT22;11385;50.822;4.324;2023-08-31T10:06:51;18.30;99.90
22436;DHT22;11385;50.822;4.324;2023-08-31T10:09:18;18.40;99.90
22436;DHT22;11385;50.822;4.324;2023-08-31T10:11:46;18.60;99.90
22436;DHT22;11385;50.822;4.324;2023-08-31T10:14:13;18.80;99.90
22436;DHT22;11385;50.822;4.324;2023-08-31T10:16:41;19.10;99.90
22436;DHT22;11385;50.822;4.324;2023-08-31T10:19:09;19.40;99.90
22436;DHT22;11385;50.822;4.324;2023-08-31T10:21:36;19.70;99.90
22436;DHT22;11385;50.822;4.324;2023-08-31T10:24:05;19.90;99.90
22436;DHT22;11385;50.822;4.324;2023-08-31T10:26:33;20.00;99.90
22436;DHT22;11385;50.822;4.324;2023-08-31T10:29:00;19.90;99.90
22436;DHT22;11385;50.822;4.324;2023-08-31T10:31:31;19.70;99.90
22436;DHT22;11385;50.822;4.324;2023-08-31T10:34:02;19.40;99.90
22436;DHT22;11385;50.822;4.324;2023-08-31T10:36:38;19.40;99.90
22436;DHT22;11385;50.822;4.324;2023-08-31T10:39:12;19.30;99.90
22436;DHT22;11385;50.822;4.324;2023-08-31T10:41:40;19.40;99.90
22436;DHT22;11385;50.822;4.324;2023-08-31T10:44:17;19.10;99.90
22436;DHT22;11385;50.822;4.324;2023-08-31T10:46:44;19.30;99.90
22436;DHT22;11385;50.822;4.324;2023-08-31T10:49:14;19.60;99.90
22436;DHT22;11385;50.822;4.324;2023-08-31T10:51:44;19.70;99.90
22436;DHT22;11385;50.822;4.324;2023-08-31T10:54:13;19.60;99.90
22436;DHT22;11385;50.822;4.324;2023-08-31T10:56:52;19.60;99.90
22436;DHT22;11385;50.822;4.324;2023-08-31T10:59:21;19.60;99.90
22436;DHT22;11385;50.822;4.324;2023-08-31T11:01:52;19.70;99.90
22436;DHT22;11385;50.822;4.324;2023-08-31T11:04:22;19.80;99.90
22436;DHT22;11385;50.822;4.324;2023-08-31T11:06:49;19.80;99.90
22436;DHT22;11385;50.822;4.324;2023-08-31T11:09:20;19.70;99.90
22436;DHT22;11385;50.822;4.324;2023-08-31T11:11:47;19.60;99.90
22436;DHT22;11385;50.822;4.324;2023-08-31T11:14:14;19.60;99.90
22436;DHT22;11385;50.822;4.324;2023-08-31T11:16:43;19.60;99.90
22436;DHT22;11385;50.822;4.324;2023-08-31T11:19:10;19.70;99.90
22436;DHT22;11385;50.822;4.324;2023-08-31T11:21:37;19.80;99.90
22436;DHT22;11385;50.822;4.324;2023-08-31T11:24:05;19.70;99.90
22436;DHT22;11385;50.822;4.324;2023-08-31T11:26:33;19.90;99.90
22436;DHT22;11385;50.822;4.324;2023-08-31T11:29:05;20.30;99.90
22436;DHT22;11385;50.822;4.324;2023-08-31T11:31:30;20.80;99.90
22436;DHT22;11385;50.822;4.324;2023-08-31T11:33:57;20.70;99.90
22436;DHT22;11385;50.822;4.324;2023-08-31T11:36:25;20.70;99.90
22436;DHT22;11385;50.822;4.324;2023-08-31T11:38:52;20.70;99.90
22436;DHT22;11385;50.822;4.324;2023-08-31T11:41:19;20.60;99.90
22436;DHT22;11385;50.822;4.324;2023-08-31T11:43:47;20.60;99.90
22436;DHT22;11385;50.822;4.324;2023-08-31T11:46:14;20.70;99.90
22436;DHT22;11385;50.822;4.324;2023-08-31T11:48:43;20.40;99.90
22436;DHT22;11385;50.822;4.324;2023-08-31T11:51:10;20.40;99.90
22436;DHT22;11385;50.822;4.324;2023-08-31T11:53:37;20.50;99.90
22436;DHT22;11385;50.822;4.324;2023-08-31T11:56:05;20.40;99.90
22436;DHT22;11385;50.822;4.324;2023-08-31T11:58:31;20.40;99.90
22436;DHT22;11385;50.822;4.324;2023-08-31T12:00:59;20.30;99.90
22436;DHT22;11385;50.822;4.324;2023-08-31T12:03:27;20.60;99.90
22436;DHT22;11385;50.822;4.324;2023-08-31T12:05:54;20.60;99.90
22436;DHT22;11385;50.822;4.324;2023-08-31T12:08:25;20.80;99.90
22436;DHT22;11385;50.822;4.324;2023-08-31T12:10:53;20.70;99.90
22436;DHT22;11385;50.822;4.324;2023-08-31T12:13:25;20.70;99.90
22436;DHT22;11385;50.822;4.324;2023-08-31T12:15:55;20.80;99.90
22436;DHT22;11385;50.822;4.324;2023-08-31T12:18:21;20.80;99.90
22436;DHT22;11385;50.822;4.324;2023-08-31T12:20:52;20.50;99.90
22436;DHT22;11385;50.822;4.324;2023-08-31T12:23:19;20.30;99.90
22436;DHT22;11385;50.822;4.324;2023-08-31T12:25:49;20.30;99.90
22436;DHT22;11385;50.822;4.324;2023-08-31T12:28:18;20.50;99.90
22436;DHT22;11385;50.822;4.324;2023-08-31T12:30:51;20.40;99.90
22436;DHT22;11385;50.822;4.324;2023-08-31T12:33:19;20.50;99.90
22436;DHT22;11385;50.822;4.324;2023-08-31T12:35:48;20.30;99.90
22436;DHT22;11385;50.822;4.324;2023-08-31T12:38:15;20.20;99.90
22436;DHT22;11385;50.822;4.324;2023-08-31T12:40:41;20.30;99.90
22436;DHT22;11385;50.822;4.324;2023-08-31T12:43:08;20.30;99.90
22436;DHT22;11385;50.822;4.324;2023-08-31T12:45:35;20.30;99.90
22436;DHT22;11385;50.822;4.324;2023-08-31T12:48:02;20.60;99.90
22436;DHT22;11385;50.822;4.324;2023-08-31T12:50:30;20.60;99.90
22436;DHT22;11385;50.822;4.324;2023-08-31T12:52:56;20.70;99.90
22436;DHT22;11385;50.822;4.324;2023-08-31T12:55:23;21.10;99.90
22436;DHT22;11385;50.822;4.324;2023-08-31T12:57:49;21.10;99.90
22436;DHT22;11385;50.822;4.324;2023-08-31T13:00:18;20.80;99.90
22436;DHT22;11385;50.822;4.324;2023-08-31T13:02:45;20.70;99.90
22436;DHT22;11385;50.822;4.324;2023-08-31T13:05:11;20.90;99.90
22436;DHT22;11385;50.822;4.324;2023-08-31T13:07:38;21.10;99.90
22436;DHT22;11385;50.822;4.324;2023-08-31T13:10:05;21.20;99.90
22436;DHT22;11385;50.822;4.324;2023-08-31T13:12:33;21.00;99.90
22436;DHT22;11385;50.822;4.324;2023-08-31T13:15:00;21.10;99.90
22436;DHT22;11385;50.822;4.324;2023-08-31T13:17:28;20.90;99.90
22436;DHT22;11385;50.822;4.324;2023-08-31T13:19:55;20.90;99.90
22436;DHT22;11385;50.822;4.324;2023-08-31T13:22:23;20.90;99.90
22436;DHT22;11385;50.822;4.324;2023-08-31T13:24:50;20.70;99.90
22436;DHT22;11385;50.822;4.324;2023-08-31T13:27:17;21.10;99.90
22436;DHT22;11385;50.822;4.324;2023-08-31T13:29:44;21.40;99.90
22436;DHT22;11385;50.822;4.324;2023-08-31T13:32:11;21.30;99.90
22436;DHT22;11385;50.822;4.324;2023-08-31T13:34:37;21.40;99.90
22436;DHT22;11385;50.822;4.324;2023-08-31T13:37:04;21.60;99.90
22436;DHT22;11385;50.822;4.324;2023-08-31T13:39:34;21.30;99.90
22436;DHT22;11385;50.822;4.324;2023-08-31T13:42:02;21.10;99.90
22436;DHT22;11385;50.822;4.324;2023-08-31T13:44:29;21.20;99.90
22436;DHT22;11385;50.822;4.324;2023-08-31T13:46:57;21.10;99.90
22436;DHT22;11385;50.822;4.324;2023-08-31T13:49:23;21.40;99.90
22436;DHT22;11385;50.822;4.324;2023-08-31T13:51:50;21.20;99.90
22436;DHT22;11385;50.822;4.324;2023-08-31T13:54:17;21.20;99.90
22436;DHT22;11385;50.822;4.324;2023-08-31T13:56:43;21.20;99.90
22436;DHT22;11385;50.822;4.324;2023-08-31T13:59:10;21.20;99.90
22436;DHT22;11385;50.822;4.324;2023-08-31T14:01:37;21.10;99.90
22436;DHT22;11385;50.822;4.324;2023-08-31T14:04:04;20.90;99.90
22436;DHT22;11385;50.822;4.324;2023-08-31T14:06:31;21.10;99.90
22436;DHT22;11385;50.822;4.324;2023-08-31T14:08:58;21.30;99.90
22436;DHT22;11385;50.822;4.324;2023-08-31T14:11:25;21.30;99.90
22436;DHT22;11385;50.822;4.324;2023-08-31T14:14:01;21.20;99.90
22436;DHT22;11385;50.822;4.324;2023-08-31T14:16:24;20.80;99.90
22436;DHT22;11385;50.822;4.324;2023-08-31T14:18:51;20.80;99.90
22436;DHT22;11385;50.822;4.324;2023-08-31T14:21:17;20.70;99.90
22436;DHT22;11385;50.822;4.324;2023-08-31T14:23:44;20.70;99.90
22436;DHT22;11385;50.822;4.324;2023-08-31T14:26:11;21.00;99.90
22436;DHT22;11385;50.822;4.324;2023-08-31T14:28:39;21.10;99.90
22436;DHT22;11385;50.822;4.324;2023-08-31T14:31:06;21.30;99.90
22436;DHT22;11385;50.822;4.324;2023-08-31T14:33:33;21.50;99.90
22436;DHT22;11385;50.822;4.324;2023-08-31T14:36:00;21.00;99.90
22436;DHT22;11385;50.822;4.324;2023-08-31T14:38:26;21.20;99.90
22436;DHT22;11385;50.822;4.324;2023-08-31T14:40:54;21.10;99.90
22436;DHT22;11385;50.822;4.324;2023-08-31T14:43:21;20.80;99.90
22436;DHT22;11385;50.822;4.324;2023-08-31T14:45:48;20.90;99.90
22436;DHT22;11385;50.822;4.324;2023-08-31T14:48:14;21.20;99.90
22436;DHT22;11385;50.822;4.324;2023-08-31T14:50:43;21.40;99.90
22436;DHT22;11385;50.822;4.324;2023-08-31T14:53:09;21.40;99.90
22436;DHT22;11385;50.822;4.324;2023-08-31T14:55:37;21.40;99.90
22436;DHT22;11385;50.822;4.324;2023-08-31T14:58:04;21.50;99.90
22436;DHT22;11385;50.822;4.324;2023-08-31T15:00:32;21.70;99.90
22436;DHT22;11385;50.822;4.324;2023-08-31T15:02:58;21.60;99.90
22436;DHT22;11385;50.822;4.324;2023-08-31T15:05:25;21.30;99.90
22436;DHT22;11385;50.822;4.324;2023-08-31T15:07:54;21.20;99.90
22436;DHT22;11385;50.822;4.324;2023-08-31T15:10:20;21.30;99.90
22436;DHT22;11385;50.822;4.324;2023-08-31T15:12:47;21.50;99.90
22436;DHT22;11385;50.822;4.324;2023-08-31T15:15:16;21.50;99.90
22436;DHT22;11385;50.822;4.324;2023-08-31T15:17:43;21.40;99.90
22436;DHT22;11385;50.822;4.324;2023-08-31T15:20:09;21.30;99.90
22436;DHT22;11385;50.822;4.324;2023-08-31T15:22:36;21.30;99.90
22436;DHT22;11385;50.822;4.324;2023-08-31T15:25:03;20.80;99.90
22436;DHT22;11385;50.822;4.324;2023-08-31T15:27:31;20.50;99.90
22436;DHT22;11385;50.822;4.324;2023-08-31T15:29:58;20.30;99.90
22436;DHT22;11385;50.822;4.324;2023-08-31T15:32:24;20.40;99.90